Cyr Plt, Maine
Current Conditions -  °F | °C
As of 2:54 PM on Friday 31 Oct 2014 (Local Time) from KCAR Reporting Station
Overcast Overcast  
Wind Chill: 43°   Ceiling: 5000
Heat Index: 43°   Visibility: 10mi
Dew Point: 27°   Wind: 0mph
Humidity: 53%   Direction: NA
Pressure: 30.04"   Gusts: NA
Location:  47.123°N, 67.9773°W
Report Text: KCAR 311854Z AUTO 00000KT 10SM OVC050 06/M03 A3004 RMK AO2 SLP181 T00611028
Loading
Personal Weather Stations






























Interactive Weather Map
Tropical Storm Tracking
New forecast layout! Learn more

10-Day Weather Forecast

Advertisements
Track Severe Weather on mobile